createdAt,value
2022-12-08T00:01:42.383Z,95.30
2022-12-08T00:06:04.252Z,95.50
2022-12-08T00:10:25.235Z,95.50
2022-12-08T00:14:34.043Z,95.70
2022-12-08T00:18:35.866Z,95.70
2022-12-08T00:22:37.539Z,95.40
2022-12-08T00:26:39.329Z,95.50
2022-12-08T00:30:42.030Z,95.50
2022-12-08T00:34:43.766Z,95.50
2022-12-08T00:38:47.208Z,95.30
2022-12-08T00:42:48.903Z,95.40
2022-12-08T00:46:50.590Z,95.30
2022-12-08T00:50:52.275Z,95.40
2022-12-08T00:54:53.932Z,95.40
2022-12-08T00:58:55.799Z,95.40
2022-12-08T01:02:57.523Z,95.90
2022-12-08T01:06:59.220Z,95.90
2022-12-08T01:11:10.645Z,95.60
2022-12-08T01:15:12.375Z,95.60
2022-12-08T01:19:16.478Z,95.50
2022-12-08T01:23:18.216Z,95.20
2022-12-08T01:27:20.037Z,95.00
2022-12-08T01:31:22.655Z,95.20
2022-12-08T01:35:24.434Z,94.90
2022-12-08T01:39:26.500Z,95.20
2022-12-08T01:43:54.274Z,95.10
2022-12-08T01:48:04.480Z,95.10
2022-12-08T01:52:16.547Z,94.80
2022-12-08T01:56:28.255Z,94.90
2022-12-08T02:00:29.967Z,95.10
2022-12-08T02:04:31.648Z,94.80
2022-12-08T02:08:34.786Z,94.60
2022-12-08T02:12:36.511Z,94.90
2022-12-08T02:16:53.318Z,94.70
2022-12-08T02:21:36.905Z,94.50
2022-12-08T02:26:05.827Z,94.80
2022-12-08T02:30:38.170Z,94.60
2022-12-08T02:34:51.441Z,94.30
2022-12-08T02:39:02.983Z,94.40
2022-12-08T02:43:23.339Z,94.40
2022-12-08T02:47:27.609Z,94.60
2022-12-08T02:51:29.354Z,94.60
2022-12-08T02:55:56.566Z,94.50
2022-12-08T03:00:10.292Z,94.50
2022-12-08T03:04:50.240Z,94.40
2022-12-08T03:08:58.112Z,94.70
2022-12-08T03:13:23.004Z,94.20
2022-12-08T03:17:28.586Z,94.40
2022-12-08T03:21:32.320Z,94.20
2022-12-08T03:25:39.680Z,94.10
2022-12-08T03:29:41.732Z,93.90
2022-12-08T03:33:49.435Z,94.10
2022-12-08T03:37:51.256Z,94.30
2022-12-08T03:41:53.025Z,94.00
2022-12-08T03:45:54.732Z,94.20
2022-12-08T03:49:56.624Z,94.30
2022-12-08T03:53:58.409Z,94.20
2022-12-08T03:58:00.095Z,93.70
2022-12-08T04:02:01.905Z,93.60
2022-12-08T04:06:03.707Z,93.80
2022-12-08T04:10:06.293Z,93.90
2022-12-08T04:14:08.241Z,93.40
2022-12-08T04:18:09.981Z,93.40
2022-12-08T04:22:11.656Z,93.50
2022-12-08T04:26:13.610Z,93.30
2022-12-08T04:30:15.330Z,93.50
2022-12-08T04:34:17.007Z,93.10
2022-12-08T04:38:18.705Z,93.30
2022-12-08T04:42:20.328Z,93.40
2022-12-08T04:46:21.991Z,93.50
2022-12-08T04:50:23.656Z,93.20
2022-12-08T04:54:25.349Z,93.20
2022-12-08T04:58:27.063Z,93.40
2022-12-08T05:02:28.776Z,93.40
2022-12-08T05:06:30.458Z,93.40
2022-12-08T05:10:32.652Z,93.20
2022-12-08T05:14:34.276Z,92.90
2022-12-08T05:18:36.340Z,92.80
2022-12-08T05:22:37.993Z,93.10
2022-12-08T05:26:39.852Z,92.90
2022-12-08T05:30:41.628Z,93.10
2022-12-08T05:34:43.323Z,92.90
2022-12-08T05:38:45.623Z,92.90
2022-12-08T05:42:47.248Z,93.00
2022-12-08T05:46:49.025Z,93.40
2022-12-08T05:50:51.462Z,93.00
2022-12-08T05:54:53.211Z,93.00
2022-12-08T05:58:54.948Z,92.90
2022-12-08T06:02:56.649Z,92.60
2022-12-08T06:06:58.506Z,92.60
2022-12-08T06:11:00.222Z,92.60
2022-12-08T06:15:01.889Z,92.20
2022-12-08T06:19:03.522Z,92.70
2022-12-08T06:23:05.123Z,92.50
2022-12-08T06:27:06.797Z,92.50
2022-12-08T06:31:09.964Z,92.30
2022-12-08T06:35:11.615Z,92.20
2022-12-08T06:39:13.273Z,93.30
2022-12-08T06:43:14.871Z,93.40
2022-12-08T06:47:16.503Z,93.50
2022-12-08T06:51:20.652Z,93.10
2022-12-08T06:55:50.741Z,93.10
2022-12-08T06:59:44.949Z,92.80
2022-12-08T07:03:47.681Z,92.50
2022-12-08T07:07:49.534Z,92.90
2022-12-08T07:11:51.390Z,92.40
2022-12-08T07:15:53.061Z,92.30
2022-12-08T07:19:54.676Z,92.40
2022-12-08T07:23:58.058Z,92.70
2022-12-08T07:27:59.821Z,92.20
2022-12-08T07:32:01.564Z,92.70
2022-12-08T07:36:06.452Z,92.70
2022-12-08T07:40:09.125Z,92.90
2022-12-08T07:44:11.400Z,92.90
2022-12-08T07:48:13.308Z,93.20
2022-12-08T07:52:15.294Z,93.10
2022-12-08T07:56:17.418Z,93.10
2022-12-08T08:00:19.830Z,93.30
2022-12-08T08:04:21.582Z,93.40
2022-12-08T08:08:23.293Z,93.50
2022-12-08T08:12:32.914Z,93.40
2022-12-08T08:16:38.313Z,93.80
2022-12-08T08:20:40.869Z,93.90
2022-12-08T08:24:45.034Z,93.70
2022-12-08T08:28:48.186Z,93.50
2022-12-08T08:32:50.174Z,93.40
2022-12-08T08:36:51.896Z,93.30
2022-12-08T08:40:53.721Z,93.40
2022-12-08T08:44:55.352Z,93.60
2022-12-08T08:48:57.277Z,93.60
2022-12-08T08:52:58.978Z,93.70
2022-12-08T08:57:01.648Z,93.50
2022-12-08T09:01:03.502Z,93.80
2022-12-08T09:05:06.659Z,93.90
2022-12-08T09:09:08.532Z,93.80
2022-12-08T09:13:10.292Z,94.00
2022-12-08T09:17:11.953Z,94.00
2022-12-08T09:21:16.701Z,94.00
2022-12-08T09:25:18.378Z,94.10
2022-12-08T09:29:20.202Z,94.30
2022-12-08T09:33:21.869Z,94.40
2022-12-08T09:37:23.561Z,94.50
2022-12-08T09:41:38.912Z,94.50
2022-12-08T09:45:42.509Z,94.50
2022-12-08T09:49:52.511Z,94.30
2022-12-08T09:54:15.658Z,94.40
2022-12-08T09:58:38.326Z,94.30
2022-12-08T10:02:40.146Z,94.30
2022-12-08T10:06:53.161Z,94.60
2022-12-08T10:10:59.830Z,94.70
2022-12-08T10:15:01.604Z,94.80
2022-12-08T10:19:22.440Z,94.80
2022-12-08T10:23:39.442Z,94.80
2022-12-08T10:27:41.207Z,94.70
2022-12-08T10:31:43.373Z,94.70
2022-12-08T10:35:54.914Z,95.00
2022-12-08T10:40:01.465Z,94.90
2022-12-08T10:44:03.270Z,94.90
2022-12-08T10:48:16.411Z,94.90
2022-12-08T10:52:24.814Z,94.90
2022-12-08T10:56:28.952Z,95.00
2022-12-08T11:00:30.777Z,95.10
2022-12-08T11:04:38.387Z,95.10
2022-12-08T11:08:50.414Z,95.10
2022-12-08T11:12:52.060Z,95.30
2022-12-08T11:16:56.945Z,95.20
2022-12-08T11:21:17.203Z,95.30
2022-12-08T11:25:27.615Z,95.50
2022-12-08T11:29:32.188Z,95.50
2022-12-08T11:33:34.978Z,95.40
2022-12-08T11:37:40.582Z,95.30
2022-12-08T11:41:44.163Z,95.40
2022-12-08T11:45:49.887Z,95.10
2022-12-08T11:49:59.247Z,94.70
2022-12-08T11:54:34.263Z,94.70
2022-12-08T11:58:44.416Z,94.60
2022-12-08T12:02:53.157Z,93.90
2022-12-08T12:07:25.869Z,94.30
2022-12-08T12:12:15.712Z,94.50
2022-12-08T12:16:17.363Z,94.40
2022-12-08T12:20:37.726Z,94.10
2022-12-08T12:24:40.026Z,94.00
2022-12-08T12:28:49.639Z,93.40
2022-12-08T12:33:00.871Z,94.20
2022-12-08T12:37:16.476Z,94.10
2022-12-08T12:41:27.836Z,93.90
2022-12-08T12:45:34.284Z,93.80
2022-12-08T12:49:38.981Z,94.00
2022-12-08T12:53:40.615Z,94.20
2022-12-08T12:57:54.487Z,94.10
2022-12-08T13:01:56.683Z,94.40
2022-12-08T13:05:59.576Z,94.70
2022-12-08T13:10:16.488Z,94.50
2022-12-08T13:14:46.727Z,94.20
2022-12-08T13:18:56.582Z,94.00
2022-12-08T13:23:11.998Z,94.00
2022-12-08T13:27:13.740Z,93.80
2022-12-08T13:31:52.008Z,93.70
2022-12-08T13:36:17.365Z,94.60
2022-12-08T13:40:24.893Z,94.30
2022-12-08T13:57:50.896Z,95.10
2022-12-08T14:01:52.784Z,95.00
2022-12-08T14:06:12.896Z,95.20
2022-12-08T14:10:25.836Z,95.10
2022-12-08T14:15:00.395Z,95.00
2022-12-08T14:18:51.479Z,94.90
2022-12-08T14:22:54.226Z,94.90
2022-12-08T14:27:01.780Z,94.90
2022-12-08T14:31:04.340Z,94.90
2022-12-08T14:35:08.812Z,95.00
2022-12-08T14:39:10.978Z,94.90
2022-12-08T14:43:16.537Z,94.90
2022-12-08T14:47:21.085Z,94.80
2022-12-08T14:51:31.412Z,94.70
2022-12-08T14:55:37.322Z,94.60
2022-12-08T14:59:40.260Z,94.50
2022-12-08T15:03:48.992Z,94.70
2022-12-08T15:07:58.770Z,94.80
2022-12-08T15:12:07.628Z,94.70
2022-12-08T15:16:41.556Z,94.80
2022-12-08T15:20:53.571Z,94.70
2022-12-08T15:24:56.293Z,94.90
2022-12-08T15:28:57.979Z,94.90
2022-12-08T15:32:59.629Z,94.80
2022-12-08T15:37:04.384Z,94.90
2022-12-08T15:41:10.120Z,95.00
2022-12-08T15:45:16.210Z,95.00
2022-12-08T15:49:23.486Z,95.30
2022-12-08T15:53:25.218Z,95.40
2022-12-08T16:01:53.229Z,95.40
2022-12-08T16:06:39.037Z,95.30
2022-12-08T16:10:24.617Z,95.40
2022-12-08T16:18:49.563Z,95.50
2022-12-08T16:22:56.810Z,95.50
2022-12-08T16:31:45.854Z,95.40
2022-12-08T16:35:47.765Z,95.20
2022-12-08T16:39:50.781Z,95.30
2022-12-08T16:43:53.016Z,95.20
2022-12-08T16:47:55.749Z,95.20
2022-12-08T16:51:57.374Z,95.00
2022-12-08T16:55:59.031Z,95.00
2022-12-08T17:00:00.697Z,95.10
2022-12-08T17:08:24.322Z,95.00
2022-12-08T17:12:25.978Z,94.90
2022-12-08T17:16:27.699Z,95.30
2022-12-08T17:20:29.443Z,95.30
2022-12-08T17:24:31.564Z,95.20
2022-12-08T17:28:59.013Z,95.30
2022-12-08T17:32:55.053Z,94.90
2022-12-08T17:36:56.773Z,95.00
2022-12-08T17:41:03.308Z,95.00
2022-12-08T17:45:07.082Z,95.00
2022-12-08T17:49:10.803Z,95.00
2022-12-08T17:53:12.635Z,94.90
2022-12-08T17:57:14.294Z,95.00
2022-12-08T18:01:15.974Z,95.00
2022-12-08T18:05:17.745Z,95.10
2022-12-08T18:09:19.582Z,95.10
2022-12-08T18:13:21.286Z,94.90
2022-12-08T18:17:22.943Z,94.70
2022-12-08T18:21:24.611Z,94.70
2022-12-08T18:25:26.422Z,95.10
2022-12-08T18:29:28.073Z,94.50
2022-12-08T18:33:29.695Z,94.30
2022-12-08T18:37:31.346Z,93.90
2022-12-08T18:41:33.141Z,94.40
2022-12-08T18:45:36.804Z,94.70
2022-12-08T18:49:38.528Z,94.60
2022-12-08T18:53:40.825Z,94.20
2022-12-08T18:57:43.390Z,94.60
2022-12-08T19:01:45.113Z,94.70
2022-12-08T19:05:46.862Z,94.30
2022-12-08T19:09:48.512Z,94.50
2022-12-08T19:13:50.913Z,94.20
2022-12-08T19:17:52.547Z,94.30
2022-12-08T19:21:54.348Z,93.80
2022-12-08T19:25:56.054Z,93.80
2022-12-08T19:29:57.797Z,93.60
2022-12-08T19:33:59.470Z,93.60
2022-12-08T19:38:01.128Z,93.50
2022-12-08T19:42:22.100Z,93.70
2022-12-08T19:46:25.175Z,93.90
2022-12-08T19:50:36.224Z,93.70
2022-12-08T19:54:38.059Z,93.70
2022-12-08T19:58:39.710Z,93.60
2022-12-08T20:02:41.608Z,93.50
2022-12-08T20:06:44.387Z,93.40
2022-12-08T20:10:46.762Z,93.60
2022-12-08T20:14:48.466Z,93.60
2022-12-08T20:18:50.795Z,93.50
2022-12-08T20:22:52.431Z,92.80
2022-12-08T20:26:54.210Z,92.60
2022-12-08T20:30:56.011Z,92.50
2022-12-08T20:34:57.952Z,92.40
2022-12-08T20:38:59.619Z,92.60
2022-12-08T20:43:01.590Z,92.80
2022-12-08T20:47:03.330Z,92.60
2022-12-08T20:51:05.376Z,92.60
2022-12-08T20:55:08.298Z,92.40
2022-12-08T20:59:17.874Z,92.70
2022-12-08T21:03:19.992Z,92.60
2022-12-08T21:07:21.897Z,92.70
2022-12-08T21:11:23.677Z,92.60
2022-12-08T21:15:25.478Z,92.10
2022-12-08T21:19:27.472Z,91.90
2022-12-08T21:23:29.251Z,91.90
2022-12-08T21:27:31.120Z,91.60
2022-12-08T21:31:33.634Z,91.40
2022-12-08T21:35:35.437Z,91.70
2022-12-08T21:39:37.382Z,92.00
2022-12-08T21:43:39.766Z,91.90
2022-12-08T21:47:42.224Z,91.90
2022-12-08T21:51:44.157Z,91.80
2022-12-08T21:55:46.205Z,92.10
2022-12-08T21:59:47.905Z,91.90
2022-12-08T22:03:50.094Z,92.10
2022-12-08T22:07:52.009Z,92.10
2022-12-08T22:11:53.735Z,92.20
2022-12-08T22:16:00.127Z,91.80
2022-12-08T22:20:02.642Z,91.90
2022-12-08T22:24:04.583Z,92.00
2022-12-08T22:28:06.455Z,92.10
2022-12-08T22:32:08.155Z,91.80
2022-12-08T22:36:36.382Z,91.70
2022-12-08T22:40:40.741Z,91.70
2022-12-08T22:44:42.414Z,91.60
2022-12-08T22:48:44.971Z,92.10
2022-12-08T22:52:46.616Z,91.80
2022-12-08T22:56:48.249Z,92.00
2022-12-08T23:00:50.517Z,91.80
2022-12-08T23:04:56.260Z,91.60
2022-12-08T23:08:59.257Z,91.70
2022-12-08T23:13:03.918Z,91.60
2022-12-08T23:17:06.125Z,91.70
2022-12-08T23:21:12.006Z,91.70
2022-12-08T23:25:14.414Z,91.50
2022-12-08T23:29:16.349Z,91.70
2022-12-08T23:33:18.277Z,92.00
2022-12-08T23:37:20.087Z,91.90
2022-12-08T23:41:22.508Z,91.70
2022-12-08T23:45:24.317Z,91.70
2022-12-08T23:49:26.209Z,91.80
2022-12-08T23:53:33.319Z,91.90
2022-12-08T23:57:36.314Z,91.90
